NTAA/PPT METAR and TAF weather

Enter ICAO airport designator
Station Type Date Time Source
NTAA METAR 2021/09/28 05:00 UTC NOAA

NTAA 280500Z 04011KT 350V100 9999 FEW023 26/21 Q1018 NOSIG


Station Type Date Time Source
NTAA Decoded METAR 2021/09/28 05:00 UTC NOAA

Tahiti-Faaa, French Polynesia (NTAA) 17-33S 149-37W 2M
Sep 28, 2021 - 01:00 AM EDT / 2021.09.28 0500 UTC
Wind: from the NE (040 degrees) at 13 MPH (11 KT) (direction variable):0
Visibility: greater than 7 mile(s):0
Sky conditions: mostly clear
Temperature: 78 F (26 C)
Dew Point: 69 F (21 C)
Relative Humidity: 73%
Pressure (altimeter): 30.06 in. Hg (1018 hPa)
ob: NTAA 280500Z 04011KT 350V100 9999 FEW023 26/21 Q1018 NOSIG
cycle: 5

Station Type Date Time Source
NTAA TAF 2021/09/27 18:21 UTC NOAA

TAF NTAA 271700Z 2718/2824 VRB05KT 9999 FEW023
TEMPO 2719/2803 06015KT

Example: see airport list